Hudson Mills, Michigan
Current Conditions -  °F | °C
As of 10:53 AM on Friday 31 Oct 2014 (Local Time) from KARB Reporting Station
Light Rain Light Rain  
Wind Chill: 38°   Ceiling: 1000
Heat Index: 42°   Visibility: 7mi
Dew Point: 38°   Wind: 7mph
Humidity: 85%   Direction: 350°N
Pressure: 29.89"   Gusts: NA
Location:  42.3528°N, 83.8974°W
Report Text: KARB 311453Z 35006KT 7SM -RA BKN010 OVC017 06/03 A2989 RMK AO2 CIG 008V014 SLP125 P0003 60006 T00560033 56001
Loading
Personal Weather Stations






























Interactive Weather Map New forecast layout! Learn more

10-Day Weather Forecast

Advertisements
Track Severe Weather on mobile